Time;durP1;ratioP1;P1;durP2;ratioP2;P2;SDS_P1;SDS_P2;PMS_P1;PMS_P2;Temp;Humidity;BMP_temperature;BMP_pressure;BME280_temperature;BME280_humidity;BME280_pressure;Samples;Min_cycle;Max_cycle;Signal;HPM_P1;HPM_P2
2022/07/02 00:02:27;;;;;;;10.50;2.60;;;14.50;99.90;;;;;;4960856;28;209489;-80
2022/07/02 00:05:02;;;;;;;10.13;2.90;;;14.50;99.90;;;;;;4987175;28;239962;-79
2022/07/02 00:07:28;;;;;;;8.82;2.60;;;14.50;99.90;;;;;;4957939;28;208998;-79
2022/07/02 00:09:56;;;;;;;10.15;2.88;;;14.50;99.90;;;;;;5009214;28;61519;-79
2022/07/02 00:12:26;;;;;;;12.10;3.08;;;14.50;99.90;;;;;;4972546;28;212290;-80
2022/07/02 00:14:54;;;;;;;12.15;2.80;;;14.40;99.90;;;;;;5015557;28;32503;-80
2022/07/02 00:17:21;;;;;;;8.95;2.72;;;14.40;99.90;;;;;;4954721;28;204442;-79
2022/07/02 00:19:49;;;;;;;7.82;2.40;;;14.40;99.90;;;;;;5017320;28;99502;-79
2022/07/02 00:22:17;;;;;;;11.10;3.10;;;14.30;99.90;;;;;;4964134;28;204536;-80
2022/07/02 00:24:44;;;;;;;8.27;2.60;;;14.40;99.90;;;;;;5008298;28;40983;-80
2022/07/02 00:27:12;;;;;;;8.70;3.10;;;14.30;99.90;;;;;;4966341;28;205875;-80
2022/07/02 00:30:01;;;;;;;11.18;2.55;;;14.30;99.90;;;;;;5002257;28;185545;-79
2022/07/02 00:32:31;;;;;;;9.77;2.90;;;14.30;99.90;;;;;;4944054;28;214655;-79
2022/07/02 00:34:58;;;;;;;9.13;2.80;;;14.30;99.90;;;;;;4997597;28;139325;-79
2022/07/02 00:37:28;;;;;;;9.95;2.65;;;14.20;99.90;;;;;;4955695;28;212111;-79
2022/07/02 00:39:55;;;;;;;8.77;2.80;;;14.20;99.90;;;;;;5009183;28;255366;-80
2022/07/02 00:42:24;;;;;;;9.02;2.83;;;14.10;99.90;;;;;;4964384;28;220346;-79
2022/07/02 00:44:51;;;;;;;9.55;2.83;;;14.10;99.90;;;;;;5009408;28;210710;-79
2022/07/02 00:47:23;;;;;;;10.25;3.00;;;14.10;99.90;;;;;;4951768;28;208086;-79
2022/07/02 00:49:50;;;;;;;11.80;2.97;;;14.00;99.90;;;;;;5006780;28;197050;-80
2022/07/02 00:52:16;;;;;;;9.25;3.25;;;14.00;99.90;;;;;;4969959;28;211323;-79
2022/07/02 00:54:42;;;;;;;9.88;2.80;;;14.00;99.90;;;;;;5004148;28;217407;-80
2022/07/02 00:57:11;;;;;;;9.30;2.92;;;14.00;99.90;;;;;;4965600;28;212580;-80
2022/07/02 00:59:38;;;;;;;11.93;3.05;;;13.90;99.90;;;;;;5000119;28;247923;-79
2022/07/02 01:02:07;;;;;;;9.98;2.78;;;13.90;99.90;;;;;;4946039;28;212716;-80
2022/07/02 01:04:34;;;;;;;10.60;2.70;;;13.90;99.90;;;;;;4996628;28;237676;-80
2022/07/02 01:07:06;;;;;;;10.30;2.70;;;13.80;99.90;;;;;;4966524;28;205813;-80
2022/07/02 01:12:26;;;;;;;9.77;2.65;;;13.80;99.90;;;;;;4968148;28;208430;-79
2022/07/02 01:14:54;;;;;;;10.27;2.87;;;13.80;99.90;;;;;;4995310;28;60871;-79
2022/07/02 01:17:21;;;;;;;10.65;2.80;;;13.80;99.90;;;;;;4960278;28;215315;-80
2022/07/02 01:19:48;;;;;;;10.65;2.90;;;13.80;99.90;;;;;;5001888;28;276814;-80
2022/07/02 01:22:19;;;;;;;10.25;2.83;;;13.70;99.90;;;;;;4970888;28;189122;-79
2022/07/02 01:24:51;;;;;;;9.80;2.78;;;13.80;99.90;;;;;;4989921;28;27832;-80
2022/07/02 01:27:18;;;;;;;10.75;2.92;;;13.70;99.90;;;;;;4969831;28;203735;-80
2022/07/02 01:29:45;;;;;;;8.63;2.90;;;13.70;99.90;;;;;;4993023;28;22880;-81
2022/07/02 01:32:12;;;;;;;11.18;3.08;;;13.70;99.90;;;;;;4977538;28;204564;-80
2022/07/02 01:34:42;;;;;;;12.30;3.08;;;13.70;99.90;;;;;;4992985;28;102897;-80
2022/07/02 01:37:13;;;;;;;10.82;2.80;;;13.70;99.90;;;;;;4985380;28;203870;-80
2022/07/02 01:39:41;;;;;;;10.73;3.05;;;13.70;99.90;;;;;;5006909;28;98452;-80
2022/07/02 01:42:08;;;;;;;11.43;3.15;;;13.70;99.90;;;;;;4976838;28;188750;-79
2022/07/02 01:44:35;;;;;;;13.63;3.60;;;13.60;99.90;;;;;;5013594;28;211544;-79
2022/07/02 01:47:03;;;;;;;8.88;3.17;;;13.60;99.90;;;;;;4980721;28;133395;-79
2022/07/02 01:49:29;;;;;;;10.02;3.33;;;13.60;99.90;;;;;;5010954;28;256871;-79
2022/07/02 01:51:55;;;;;;;11.18;3.38;;;13.50;99.90;;;;;;4966216;28;201061;-80
2022/07/02 01:54:22;;;;;;;11.03;3.63;;;13.50;99.90;;;;;;5005643;28;258371;-80
2022/07/02 01:56:48;;;;;;;12.57;3.65;;;13.50;99.90;;;;;;4967423;28;216768;-80
2022/07/02 01:59:14;;;;;;;9.90;3.53;;;13.50;99.90;;;;;;4979746;28;246754;-80
2022/07/02 02:01:41;;;;;;;11.50;3.35;;;13.50;99.90;;;;;;4960750;28;210121;-80
2022/07/02 02:04:07;;;;;;;11.30;3.78;;;13.50;99.90;;;;;;4988373;28;254310;-81
2022/07/02 02:06:34;;;;;;;10.07;3.67;;;13.40;99.90;;;;;;4941034;28;234417;-80
2022/07/02 02:09:00;;;;;;;13.40;3.50;;;13.50;99.90;;;;;;4997875;28;20472;-80
2022/07/02 02:11:26;;;;;;;11.15;3.30;;;13.40;99.90;;;;;;4959147;28;190092;-80
2022/07/02 02:13:53;;;;;;;9.52;3.47;;;13.40;99.90;;;;;;5014267;28;20057;-81
2022/07/02 02:16:19;;;;;;;13.00;3.63;;;13.40;99.90;;;;;;4961780;28;232325;-80
2022/07/02 02:18:47;;;;;;;9.73;3.50;;;13.40;99.90;;;;;;5015911;28;20050;-80
2022/07/02 02:21:13;;;;;;;10.98;3.55;;;13.30;99.90;;;;;;4955718;28;206707;-80
2022/07/02 02:23:39;;;;;;;13.07;3.50;;;13.30;99.90;;;;;;5003178;28;20184;-80
2022/07/02 02:26:05;;;;;;;9.90;3.72;;;13.30;99.90;;;;;;4945296;28;195219;-81
2022/07/02 02:28:31;;;;;;;11.50;3.60;;;13.30;99.90;;;;;;5005233;28;20064;-80
2022/07/02 02:30:57;;;;;;;12.95;3.80;;;13.30;99.90;;;;;;4964303;28;209922;-80
2022/07/02 02:33:23;;;;;;;11.77;3.88;;;13.30;99.90;;;;;;5012555;28;20061;-81
2022/07/02 02:35:49;;;;;;;12.23;3.88;;;13.30;99.90;;;;;;4975483;28;208934;-81
2022/07/02 02:38:16;;;;;;;9.52;3.65;;;13.30;99.90;;;;;;5003055;28;20057;-80
2022/07/02 02:40:42;;;;;;;9.82;3.53;;;13.20;99.90;;;;;;4958828;28;206984;-80
2022/07/02 02:43:08;;;;;;;12.18;4.00;;;13.20;99.90;;;;;;5012292;28;20045;-79
2022/07/02 02:45:34;;;;;;;12.97;3.70;;;13.20;99.90;;;;;;4940767;28;280605;-79
2022/07/02 02:48:00;;;;;;;11.45;3.90;;;13.20;99.90;;;;;;5015089;28;20049;-81
2022/07/02 02:50:26;;;;;;;10.98;4.00;;;13.20;99.90;;;;;;4970483;28;206854;-80
2022/07/02 02:52:53;;;;;;;14.27;4.22;;;13.10;99.90;;;;;;5015710;28;20058;-79
2022/07/02 02:55:19;;;;;;;11.15;4.03;;;13.20;99.90;;;;;;4983382;28;205830;-81
2022/07/02 02:57:45;;;;;;;13.43;3.70;;;13.20;99.90;;;;;;4994241;28;20523;-79
2022/07/02 03:00:12;;;;;;;11.93;4.30;;;13.10;99.90;;;;;;5014933;28;62047;-80
2022/07/02 03:02:38;;;;;;;10.25;3.78;;;13.10;99.90;;;;;;4960271;28;179794;-81
2022/07/02 03:05:04;;;;;;;13.45;4.38;;;13.10;99.90;;;;;;5002714;28;122046;-80
2022/07/02 03:07:31;;;;;;;11.25;4.18;;;13.10;99.90;;;;;;4957399;28;209948;-79
2022/07/02 03:09:57;;;;;;;11.68;3.90;;;13.10;99.90;;;;;;5015243;28;52929;-80
2022/07/02 03:12:23;;;;;;;12.73;4.10;;;13.10;99.90;;;;;;4964366;28;210410;-80
2022/07/02 03:14:49;;;;;;;12.95;4.50;;;13.10;99.90;;;;;;5009796;28;61047;-81
2022/07/02 03:17:15;;;;;;;11.80;4.07;;;13.00;99.90;;;;;;4967879;28;206845;-81
2022/07/02 03:19:42;;;;;;;12.65;4.43;;;13.10;99.90;;;;;;4983615;28;212453;-81
2022/07/02 03:22:08;;;;;;;11.35;4.30;;;13.00;99.90;;;;;;4944913;28;205175;-81
2022/07/02 03:24:34;;;;;;;10.95;4.47;;;13.00;99.90;;;;;;5002297;28;225167;-80
2022/07/02 03:27:00;;;;;;;10.52;4.50;;;13.00;99.90;;;;;;4966866;28;203344;-80
2022/07/02 03:29:26;;;;;;;11.43;4.43;;;13.00;99.90;;;;;;5001556;28;258403;-80
2022/07/02 03:31:52;;;;;;;13.15;4.90;;;13.00;99.90;;;;;;4972018;28;209904;-81
2022/07/02 03:34:18;;;;;;;13.60;5.10;;;12.90;99.90;;;;;;4994123;28;260684;-80
2022/07/02 03:36:44;;;;;;;13.90;5.28;;;12.90;99.90;;;;;;4944094;28;207046;-81
2022/07/02 03:39:11;;;;;;;13.70;5.53;;;12.90;99.90;;;;;;4989980;28;249482;-81
2022/07/02 03:41:37;;;;;;;11.82;5.25;;;12.90;99.90;;;;;;4953809;28;212608;-80
2022/07/02 03:44:03;;;;;;;13.35;5.13;;;12.90;99.90;;;;;;5011419;28;20046;-82
2022/07/02 03:46:29;;;;;;;15.68;5.55;;;12.90;99.90;;;;;;4966310;28;207784;-81
2022/07/02 03:48:55;;;;;;;11.52;5.68;;;13.00;99.90;;;;;;4995431;28;20073;-80
2022/07/02 03:51:22;;;;;;;13.38;5.28;;;13.00;99.90;;;;;;4957182;28;197740;-80
2022/07/02 03:53:48;;;;;;;13.35;5.68;;;13.00;99.90;;;;;;5008152;28;20065;-81
2022/07/02 03:56:14;;;;;;;11.38;5.85;;;13.10;99.90;;;;;;4952561;28;210473;-80
2022/07/02 03:58:41;;;;;;;12.75;6.18;;;13.10;99.90;;;;;;5007033;28;20404;-80
2022/07/02 04:01:07;;;;;;;11.77;5.90;;;13.10;99.90;;;;;;4963781;28;213852;-79
2022/07/02 04:03:36;;;;;;;12.13;5.90;;;13.10;99.90;;;;;;5008574;28;20483;-80
2022/07/02 04:06:03;;;;;;;18.38;6.40;;;13.20;99.90;;;;;;4934058;28;214617;-80
2022/07/02 04:08:29;;;;;;;11.07;5.93;;;13.20;99.90;;;;;;5014154;28;20060;-78
2022/07/02 04:10:55;;;;;;;12.75;6.13;;;13.30;99.90;;;;;;4953989;28;205541;-79
2022/07/02 04:13:21;;;;;;;12.25;6.22;;;13.40;99.90;;;;;;4996824;28;20042;-79
2022/07/02 04:15:47;;;;;;;13.00;5.80;;;13.40;99.90;;;;;;4978719;28;162127;-79
2022/07/02 04:18:13;;;;;;;13.00;6.05;;;13.40;99.90;;;;;;5021720;28;20062;-78
2022/07/02 04:20:40;;;;;;;14.05;5.95;;;13.40;99.90;;;;;;4957812;28;234141;-80
2022/07/02 04:23:07;;;;;;;13.55;5.57;;;13.50;99.90;;;;;;5003567;28;20562;-80
2022/07/02 04:25:33;;;;;;;11.90;5.63;;;13.50;99.90;;;;;;4976429;28;205496;-80
2022/07/02 04:27:59;;;;;;;13.10;5.90;;;13.50;99.90;;;;;;5013204;28;20064;-79
2022/07/02 04:30:25;;;;;;;12.73;5.22;;;13.60;99.90;;;;;;4964743;28;236639;-80
2022/07/02 04:32:51;;;;;;;17.00;6.20;;;13.60;99.90;;;;;;5005557;28;20122;-80
2022/07/02 04:35:18;;;;;;;13.82;6.40;;;13.60;99.90;;;;;;4982836;28;93702;-79
2022/07/02 04:37:44;;;;;;;14.73;6.13;;;13.60;99.90;;;;;;4980363;28;227931;-79
2022/07/02 04:40:10;;;;;;;14.63;6.07;;;13.70;99.90;;;;;;4990252;28;26924;-80
2022/07/02 04:42:36;;;;;;;12.00;6.25;;;13.70;99.90;;;;;;4972501;28;203680;-80
2022/07/02 04:45:03;;;;;;;13.00;6.28;;;13.70;99.90;;;;;;4998086;28;252486;-79
2022/07/02 04:47:29;;;;;;;10.75;6.35;;;13.80;99.90;;;;;;4958321;28;214693;-79
2022/07/02 04:49:55;;;;;;;15.10;7.07;;;13.90;99.90;;;;;;4989162;28;116609;-80
2022/07/02 04:52:21;;;;;;;14.45;6.32;;;13.90;99.90;;;;;;4942764;28;213269;-79
2022/07/02 04:54:47;;;;;;;15.55;6.72;;;13.90;99.90;;;;;;4997737;28;79279;-79
2022/07/02 04:57:13;;;;;;;15.52;6.80;;;14.00;99.90;;;;;;4964247;28;205737;-78
2022/07/02 04:59:39;;;;;;;12.63;6.55;;;14.00;99.90;;;;;;5004328;28;99779;-79
2022/07/02 05:02:05;;;;;;;13.38;6.43;;;14.10;99.90;;;;;;4968369;28;208281;-79
2022/07/02 05:04:32;;;;;;;14.00;6.43;;;14.10;99.90;;;;;;4984225;28;118314;-78
2022/07/02 05:06:58;;;;;;;12.65;6.40;;;14.20;99.90;;;;;;4961671;28;231334;-79
2022/07/02 05:09:24;;;;;;;12.30;6.20;;;14.20;99.90;;;;;;4981816;28;245792;-78
2022/07/02 05:11:50;;;;;;;11.95;6.30;;;14.30;99.90;;;;;;4946627;28;211957;-79
2022/07/02 05:14:16;;;;;;;14.73;6.70;;;14.40;99.90;;;;;;4994243;28;262260;-79
2022/07/02 05:16:42;;;;;;;12.13;6.28;;;14.40;99.90;;;;;;4980717;28;202465;-79
2022/07/02 05:19:08;;;;;;;13.15;5.80;;;14.40;99.90;;;;;;4997151;28;252348;-80
2022/07/02 05:21:36;;;;;;;13.35;5.90;;;14.50;99.90;;;;;;4946985;28;202538;-79
2022/07/02 05:24:02;;;;;;;12.20;6.03;;;14.60;99.90;;;;;;4995001;28;20042;-79
2022/07/02 05:26:28;;;;;;;15.93;5.80;;;14.70;99.90;;;;;;4956403;28;215738;-79
2022/07/02 05:28:55;;;;;;;14.70;5.75;;;14.70;99.90;;;;;;5016231;28;20060;-79
2022/07/02 05:31:21;;;;;;;11.18;5.40;;;14.80;99.90;;;;;;4955223;28;213986;-79
2022/07/02 05:33:47;;;;;;;11.73;5.32;;;14.80;99.90;;;;;;5036275;28;20073;-80
2022/07/02 05:36:13;;;;;;;11.77;5.20;;;14.90;99.90;;;;;;4944528;28;238324;-80
2022/07/02 05:38:39;;;;;;;10.23;5.00;;;14.90;99.90;;;;;;5001895;28;20057;-77
2022/07/02 05:41:06;;;;;;;16.83;5.55;;;15.00;99.90;;;;;;4961244;28;213320;-78
2022/07/02 05:43:33;;;;;;;14.52;5.30;;;15.10;99.90;;;;;;5010243;28;20050;-79
2022/07/02 05:45:59;;;;;;;10.98;4.90;;;15.20;99.90;;;;;;4961315;28;205415;-79
2022/07/02 05:48:25;;;;;;;11.82;4.45;;;15.20;99.90;;;;;;5008598;28;20038;-79
2022/07/02 05:50:52;;;;;;;11.90;4.78;;;15.30;99.90;;;;;;4947717;28;207689;-78
2022/07/02 05:53:18;;;;;;;11.48;4.53;;;15.50;99.90;;;;;;5008151;28;20528;-79
2022/07/02 05:55:44;;;;;;;11.85;4.28;;;15.50;99.90;;;;;;4953341;28;207669;-80
2022/07/02 05:58:12;;;;;;;13.02;4.00;;;15.70;99.90;;;;;;4989317;28;20054;-79
2022/07/02 06:00:38;;;;;;;11.18;4.20;;;15.80;99.90;;;;;;4939119;28;211669;-80
2022/07/02 06:03:05;;;;;;;13.10;3.75;;;16.00;99.90;;;;;;5000857;28;20050;-79
2022/07/02 06:08:16;;;;;;;10.77;3.70;;;16.30;99.90;;;;;;5001672;28;20042;-79
2022/07/02 06:10:42;;;;;;;9.23;3.33;;;16.50;99.90;;;;;;4956305;28;219577;-80
2022/07/02 06:13:08;;;;;;;11.85;3.42;;;16.60;99.90;;;;;;5014063;28;20740;-80
2022/07/02 06:15:34;;;;;;;11.33;3.50;;;16.80;99.90;;;;;;4956507;28;244894;-80
2022/07/02 06:18:01;;;;;;;10.43;3.38;;;17.00;99.90;;;;;;4984085;28;20062;-79
2022/07/02 06:20:27;;;;;;;10.88;3.30;;;17.10;99.90;;;;;;4944167;28;236072;-79
2022/07/02 06:22:53;;;;;;;12.82;3.70;;;17.30;99.90;;;;;;4981420;28;20062;-80
2022/07/02 06:25:20;;;;;;;10.57;3.47;;;17.30;99.90;;;;;;4959691;28;223409;-81
2022/07/02 06:27:46;;;;;;;9.88;3.28;;;17.30;99.90;;;;;;5014654;28;20060;-79
2022/07/02 06:30:12;;;;;;;9.25;3.50;;;17.50;99.90;;;;;;5003753;28;151313;-80
2022/07/02 06:32:38;;;;;;;12.00;3.30;;;17.60;99.90;;;;;;4944054;28;205882;-79
2022/07/02 06:35:05;;;;;;;10.07;3.00;;;17.70;99.90;;;;;;5001672;28;236587;-77
2022/07/02 06:37:31;;;;;;;9.35;3.00;;;17.80;99.90;;;;;;4956823;28;207769;-77
2022/07/02 06:39:57;;;;;;;10.60;3.17;;;17.70;99.90;;;;;;5000230;28;245873;-77
2022/07/02 06:42:26;;;;;;;9.93;2.92;;;17.70;99.90;;;;;;4979529;28;208704;-77
2022/07/02 06:44:54;;;;;;;10.30;2.83;;;17.80;99.90;;;;;;4997629;28;220317;-77
2022/07/02 06:47:21;;;;;;;9.52;3.10;;;18.00;99.90;;;;;;4931869;28;214161;-79
2022/07/02 06:49:48;;;;;;;10.30;2.83;;;18.10;99.90;;;;;;4988218;28;268442;-78
2022/07/02 06:52:16;;;;;;;8.63;2.60;;;18.30;99.90;;;;;;4970893;28;207763;-79
2022/07/02 06:54:43;;;;;;;9.32;2.58;;;18.40;99.90;;;;;;5005832;28;20060;-78
2022/07/02 06:57:10;;;;;;;10.13;2.78;;;18.40;99.90;;;;;;4965914;28;205551;-78
2022/07/02 06:59:37;;;;;;;8.40;2.70;;;18.60;99.90;;;;;;5005170;28;151777;-78
2022/07/02 07:02:04;;;;;;;9.43;2.63;;;18.60;99.90;;;;;;4954431;28;218802;-78
2022/07/02 07:04:31;;;;;;;8.60;2.10;;;18.70;99.90;;;;;;4979694;28;264654;-78
2022/07/02 07:07:00;;;;;;;8.48;2.08;;;18.90;99.90;;;;;;4938038;28;198774;-79
2022/07/02 07:09:27;;;;;;;8.13;2.30;;;19.00;99.90;;;;;;4974897;28;248394;-79
2022/07/02 07:11:54;;;;;;;7.90;2.05;;;19.10;99.90;;;;;;4970359;28;211518;-80
2022/07/02 07:14:20;;;;;;;7.00;1.95;;;19.20;99.90;;;;;;4988623;28;263070;-77
2022/07/02 07:16:47;;;;;;;10.93;2.38;;;19.40;99.90;;;;;;4950341;28;203313;-80
2022/07/02 07:19:13;;;;;;;10.35;2.20;;;19.60;99.90;;;;;;5001840;28;268641;-79
2022/07/02 07:21:41;;;;;;;8.45;2.10;;;19.70;99.50;;;;;;4959435;28;206573;-77
2022/07/02 07:24:08;;;;;;;11.20;2.30;;;19.60;98.80;;;;;;5006611;28;251323;-77
2022/07/02 07:26:36;;;;;;;7.25;2.00;;;19.70;99.90;;;;;;4981702;28;203605;-78
2022/07/02 07:29:06;;;;;;;9.10;1.88;;;19.90;99.50;;;;;;5026163;28;20046;-78
2022/07/02 07:31:33;;;;;;;8.15;2.03;;;19.90;99.20;;;;;;4958021;28;206033;-79
2022/07/02 07:34:03;;;;;;;7.25;1.80;;;20.10;99.00;;;;;;5024175;28;20064;-79
2022/07/02 07:36:30;;;;;;;9.55;2.20;;;20.30;99.20;;;;;;4962469;28;262908;-79
2022/07/02 07:38:57;;;;;;;8.45;1.73;;;20.40;98.80;;;;;;4997024;28;20050;-78
2022/07/02 07:41:23;;;;;;;11.48;1.80;;;20.60;98.90;;;;;;4950120;28;218953;-79
2022/07/02 07:43:51;;;;;;;9.30;1.83;;;20.60;98.70;;;;;;5028818;28;20510;-79
2022/07/02 07:46:19;;;;;;;9.30;1.70;;;20.70;98.30;;;;;;4978210;28;153199;-78
2022/07/02 07:48:46;;;;;;;7.72;1.73;;;20.90;97.30;;;;;;5030475;28;20053;-79
2022/07/02 07:51:15;;;;;;;7.38;1.65;;;20.90;97.30;;;;;;4960464;28;205559;-78
2022/07/02 07:53:43;;;;;;;8.30;1.60;;;21.00;97.10;;;;;;5011202;28;20062;-79
2022/07/02 07:56:09;;;;;;;8.13;1.75;;;21.20;96.60;;;;;;4968619;28;205783;-79
2022/07/02 07:58:36;;;;;;;7.40;1.30;;;21.40;96.70;;;;;;5032014;28;20557;-78
2022/07/02 08:01:02;;;;;;;6.53;1.40;;;21.40;95.60;;;;;;4971264;28;288481;-80
2022/07/02 08:03:28;;;;;;;7.15;1.33;;;21.50;94.10;;;;;;5003409;28;20060;-79
2022/07/02 08:05:54;;;;;;;7.28;1.35;;;21.50;94.90;;;;;;4940922;28;209598;-80
2022/07/02 08:08:21;;;;;;;6.63;1.45;;;21.70;93.90;;;;;;5008372;28;20045;-78
2022/07/02 08:10:48;;;;;;;7.60;1.45;;;21.80;93.30;;;;;;4963934;28;207689;-79
2022/07/02 08:13:15;;;;;;;6.10;1.23;;;21.70;90.00;;;;;;4991855;28;20062;-79
2022/07/02 08:15:41;;;;;;;5.75;1.17;;;21.80;92.80;;;;;;4957931;28;208378;-80
2022/07/02 08:18:08;;;;;;;5.88;1.10;;;22.00;91.50;;;;;;4997274;28;20061;-80
2022/07/02 08:20:34;;;;;;;6.53;1.00;;;22.10;88.60;;;;;;4956438;28;219107;-80
2022/07/02 08:23:01;;;;;;;4.78;1.00;;;22.20;89.40;;;;;;5008576;28;20064;-80
2022/07/02 08:25:27;;;;;;;6.85;1.17;;;22.10;85.50;;;;;;4935740;28;214179;-82
2022/07/02 08:27:53;;;;;;;5.40;1.00;;;22.00;84.20;;;;;;4995815;28;20056;-81
2022/07/02 08:30:20;;;;;;;4.35;1.08;;;22.10;80.90;;;;;;4956194;28;211322;-82
2022/07/02 08:32:46;;;;;;;8.55;1.05;;;22.00;79.90;;;;;;4968461;28;20061;-81
2022/07/02 08:35:12;;;;;;;7.35;1.10;;;22.10;80.00;;;;;;5003319;28;20053;-80
2022/07/02 08:37:39;;;;;;;4.60;1.00;;;22.30;79.80;;;;;;4937585;28;206508;-81
2022/07/02 08:40:05;;;;;;;4.32;0.80;;;22.60;81.60;;;;;;4975337;28;246235;-80
2022/07/02 08:42:32;;;;;;;7.22;1.20;;;23.00;79.90;;;;;;4951936;28;209522;-80
2022/07/02 08:45:03;;;;;;;6.55;0.98;;;23.20;80.10;;;;;;4989841;28;211849;-81
2022/07/02 08:47:31;;;;;;;5.03;1.00;;;23.50;77.50;;;;;;4945178;28;217274;-79
2022/07/02 08:49:58;;;;;;;4.85;0.93;;;23.50;75.00;;;;;;4982892;28;244272;-80
2022/07/02 08:52:26;;;;;;;9.10;1.15;;;23.60;70.70;;;;;;4960026;28;206203;-80
2022/07/02 08:54:53;;;;;;;5.25;1.00;;;23.30;72.10;;;;;;4985159;28;113522;-81
2022/07/02 08:57:21;;;;;;;4.22;0.90;;;23.30;71.60;;;;;;4933250;28;211995;-80
2022/07/02 08:59:48;;;;;;;5.90;0.80;;;23.30;70.20;;;;;;4995878;28;193096;-80
2022/07/02 09:02:18;;;;;;;3.38;0.70;;;23.30;66.70;;;;;;4942307;28;208551;-80
2022/07/02 09:04:47;;;;;;;5.95;0.80;;;23.20;66.00;;;;;;4984721;28;123636;-81
2022/07/02 09:07:17;;;;;;;1.77;0.60;;;23.30;65.50;;;;;;4950395;28;210897;-80
2022/07/02 09:09:45;;;;;;;5.63;0.80;;;23.50;60.00;;;;;;4990669;28;165458;-82
2022/07/02 09:12:15;;;;;;;3.40;0.80;;;23.60;60.10;;;;;;4979828;28;201585;-81
2022/07/02 09:14:43;;;;;;;3.58;0.65;;;23.60;56.80;;;;;;5016591;28;154509;-81
2022/07/02 09:17:11;;;;;;;4.57;0.80;;;23.90;59.00;;;;;;4947575;28;206274;-81
2022/07/02 09:19:38;;;;;;;4.15;0.60;;;24.20;56.20;;;;;;4995498;28;132280;-81
2022/07/02 09:22:06;;;;;;;1.15;0.50;;;24.30;56.50;;;;;;4947689;28;205322;-81
2022/07/02 09:24:33;;;;;;;3.92;0.70;;;24.50;53.40;;;;;;4986100;28;82176;-80
2022/07/02 09:27:00;;;;;;;2.85;0.55;;;24.30;53.20;;;;;;4942204;28;182148;-81
2022/07/02 09:29:26;;;;;;;3.60;0.70;;;24.40;54.10;;;;;;4979207;28;273388;-81
2022/07/02 09:31:52;;;;;;;3.78;0.77;;;24.50;53.20;;;;;;4963659;28;204283;-81
2022/07/02 09:34:27;;;;;;;4.00;0.60;;;24.50;53.00;;;;;;4991433;28;261421;-80
2022/07/02 09:36:53;;;;;;;3.33;0.70;;;24.50;52.00;;;;;;4946886;28;206464;-80
2022/07/02 09:39:31;;;;;;;4.57;0.70;;;24.30;53.70;;;;;;4989596;28;267260;-81
2022/07/02 09:41:58;;;;;;;3.95;0.80;;;24.40;51.90;;;;;;4973782;28;89349;-80
2022/07/02 09:44:28;;;;;;;5.80;0.90;;;24.70;52.30;;;;;;4992160;28;258543;-81
2022/07/02 09:46:54;;;;;;;4.57;0.80;;;24.70;51.90;;;;;;4959854;28;206266;-81
2022/07/02 09:49:21;;;;;;;4.35;0.70;;;24.90;51.50;;;;;;4970189;28;261989;-80
2022/07/02 09:51:48;;;;;;;3.90;0.90;;;25.10;52.20;;;;;;4959411;28;204316;-81
2022/07/02 09:54:22;;;;;;;4.90;0.63;;;25.30;51.20;;;;;;5000819;28;212889;-82
2022/07/02 09:56:57;;;;;;;4.70;0.65;;;25.10;49.90;;;;;;4974217;28;209143;-82
2022/07/02 09:59:24;;;;;;;3.95;0.60;;;24.70;51.00;;;;;;4995708;28;275609;-81
2022/07/02 10:01:50;;;;;;;5.72;0.90;;;24.70;51.60;;;;;;4960595;28;213578;-82
2022/07/02 10:04:27;;;;;;;3.90;0.70;;;24.90;52.40;;;;;;4967915;28;258243;-82
2022/07/02 10:06:53;;;;;;;4.90;0.70;;;25.00;49.40;;;;;;4945040;28;194192;-82
2022/07/02 10:09:22;;;;;;;4.18;0.80;;;24.90;48.90;;;;;;4996972;28;264464;-81
2022/07/02 10:11:49;;;;;;;5.20;0.90;;;24.80;50.00;;;;;;4940891;28;207079;-82
2022/07/02 10:14:19;;;;;;;5.10;0.90;;;24.70;49.70;;;;;;4989333;28;270252;-81
2022/07/02 10:16:46;;;;;;;3.65;0.80;;;24.60;49.30;;;;;;4973945;28;226223;-82
2022/07/02 10:19:14;;;;;;;5.43;0.85;;;24.60;49.70;;;;;;4996489;28;272720;-82
2022/07/02 10:21:41;;;;;;;4.93;0.80;;;24.90;49.80;;;;;;4949584;28;206305;-81
2022/07/02 10:24:12;;;;;;;5.35;0.80;;;24.70;49.10;;;;;;5005324;28;20058;-82
2022/07/02 10:26:39;;;;;;;3.80;0.75;;;24.80;49.00;;;;;;4949783;28;208794;-82
2022/07/02 10:29:07;;;;;;;5.07;0.73;;;24.80;48.70;;;;;;5027198;28;20522;-82
2022/07/02 10:31:41;;;;;;;4.20;0.60;;;24.80;48.80;;;;;;4931802;28;206096;-82
2022/07/02 10:34:36;;;;;;;6.22;0.80;;;24.80;49.60;;;;;;4998781;28;265547;-82
2022/07/02 10:37:02;;;;;;;5.05;0.70;;;25.10;47.70;;;;;;4970796;28;205949;-82
2022/07/02 10:39:39;;;;;;;4.47;0.80;;;24.90;48.20;;;;;;4986020;28;266658;-82
2022/07/02 10:42:05;;;;;;;4.60;0.88;;;24.60;48.30;;;;;;4968701;28;205404;-82
2022/07/02 10:44:39;;;;;;;3.17;0.80;;;24.70;49.10;;;;;;4997817;28;226310;-82
2022/07/02 10:47:19;;;;;;;5.65;0.90;;;24.90;46.70;;;;;;4968239;28;202069;-82
2022/07/02 10:49:56;;;;;;;4.27;0.80;;;25.10;47.40;;;;;;5001901;28;249918;-81
2022/07/02 10:52:37;;;;;;;4.65;0.90;;;25.40;46.80;;;;;;4950868;28;211853;-82
2022/07/02 10:55:04;;;;;;;4.63;1.00;;;25.60;46.40;;;;;;5012188;28;69074;-83
2022/07/02 10:57:30;;;;;;;4.05;0.70;;;25.40;46.70;;;;;;4957962;28;235829;-82
2022/07/02 10:59:57;;;;;;;4.85;0.70;;;25.00;46.00;;;;;;5015560;28;59725;-82
2022/07/02 11:02:33;;;;;;;4.55;0.90;;;25.30;47.00;;;;;;4958219;28;219392;-82
2022/07/02 11:05:10;;;;;;;3.80;0.75;;;25.30;44.80;;;;;;4992781;28;154747;-82
2022/07/02 11:07:44;;;;;;;2.95;0.70;;;25.20;45.60;;;;;;4922833;28;215522;-83
2022/07/02 11:10:10;;;;;;;5.30;0.77;;;25.60;45.80;;;;;;4995372;28;99610;-83
2022/07/02 11:12:57;;;;;;;3.47;0.70;;;25.60;46.80;;;;;;4953959;28;200055;-81
2022/07/02 11:15:36;;;;;;;3.55;0.90;;;25.80;44.80;;;;;;4963310;28;234294;-82
2022/07/02 11:18:07;;;;;;;4.13;0.63;;;25.90;43.80;;;;;;5006680;28;20046;-81
2022/07/02 11:20:35;;;;;;;3.35;0.70;;;25.80;44.30;;;;;;4963533;28;147222;-81
2022/07/02 11:23:02;;;;;;;5.03;0.80;;;25.50;44.20;;;;;;5024754;28;20050;-81
2022/07/02 11:25:29;;;;;;;3.38;0.80;;;25.50;44.80;;;;;;4969009;28;257287;-82
2022/07/02 11:28:00;;;;;;;5.13;0.80;;;25.80;45.20;;;;;;5009442;28;20049;-81
2022/07/02 11:30:29;;;;;;;5.70;0.90;;;25.90;44.90;;;;;;4970494;28;205921;-81
2022/07/02 11:32:55;;;;;;;4.80;0.90;;;25.90;43.70;;;;;;4993454;28;20060;-82
2022/07/02 11:35:21;;;;;;;5.22;0.73;;;26.00;44.00;;;;;;4962005;28;198871;-81
2022/07/02 11:37:48;;;;;;;4.63;0.70;;;26.50;44.50;;;;;;5006140;28;20045;-82
2022/07/02 11:40:21;;;;;;;4.20;0.80;;;26.60;44.70;;;;;;5002095;28;208195;-82
2022/07/02 11:42:48;;;;;;;4.18;0.90;;;26.60;44.70;;;;;;5000621;28;165196;-82
2022/07/02 11:45:14;;;;;;;4.68;0.80;;;26.90;44.90;;;;;;5025374;28;42252;-80
2022/07/02 11:47:45;;;;;;;5.03;0.80;;;27.20;42.70;;;;;;4993082;28;111135;-82
2022/07/02 11:50:12;;;;;;;4.10;0.75;;;27.10;44.40;;;;;;5020035;28;269777;-82
2022/07/02 11:52:40;;;;;;;4.53;0.80;;;27.20;43.50;;;;;;4962911;28;223120;-82
2022/07/02 11:55:14;;;;;;;3.45;0.70;;;27.40;44.50;;;;;;5002904;28;176489;-82
2022/07/02 11:57:40;;;;;;;4.82;0.90;;;27.20;43.20;;;;;;4938102;28;210629;-82
2022/07/02 12:00:07;;;;;;;4.55;0.75;;;26.70;43.00;;;;;;4991987;28;181257;-83
2022/07/02 12:02:38;;;;;;;3.13;0.75;;;26.50;44.20;;;;;;4964897;28;210629;-83
2022/07/02 12:05:14;;;;;;;;;;;26.90;43.80;;;;;;4999577;28;105051;-83
2022/07/02 12:07:44;;;;;;;4.60;0.70;;;27.00;43.20;;;;;;4958346;28;137782;-82
2022/07/02 12:10:11;;;;;;;4.32;0.90;;;26.90;43.70;;;;;;5012558;28;87885;-79
2022/07/02 12:12:37;;;;;;;4.50;0.80;;;26.70;43.50;;;;;;4951929;28;206223;-80
2022/07/02 12:15:04;;;;;;;4.05;0.70;;;26.30;44.20;;;;;;4996264;28;180310;-80
2022/07/02 12:17:31;;;;;;;4.20;0.80;;;26.30;44.60;;;;;;4954307;28;223606;-77
2022/07/02 12:19:57;;;;;;;3.50;0.70;;;26.40;45.10;;;;;;4997789;28;248755;-79
2022/07/02 12:22:25;;;;;;;5.00;0.70;;;26.90;44.60;;;;;;4968820;28;222686;-78
2022/07/02 12:24:51;;;;;;;6.05;1.30;;;27.30;43.50;;;;;;5009940;28;48376;-78
2022/07/02 12:27:22;;;;;;;6.32;1.27;;;27.50;45.10;;;;;;4967331;28;209318;-80
2022/07/02 12:29:57;;;;;;;5.70;1.10;;;27.80;44.60;;;;;;5013955;28;20049;-81
2022/07/02 12:32:28;;;;;;;4.85;0.90;;;27.70;44.20;;;;;;4939094;28;215324;-79
2022/07/02 12:35:02;;;;;;;4.50;0.70;;;27.50;43.50;;;;;;5020546;28;240890;-80
2022/07/02 12:37:40;;;;;;;6.28;1.20;;;26.90;44.00;;;;;;4977532;28;183333;-80
2022/07/02 12:40:09;;;;;;;4.15;0.88;;;26.70;44.80;;;;;;5007859;28;58765;-78
2022/07/02 12:42:47;;;;;;;4.50;1.00;;;26.50;44.90;;;;;;4946938;28;212310;-79
2022/07/02 12:45:25;;;;;;;6.13;0.88;;;26.30;44.30;;;;;;4981592;28;233059;-81